sensor_id;sensor_type;location;lat;lon;timestamp;pressure;altitude;pressure_sealevel;temperature;humidity
6208;BME280;3137;51.550;7.060;2023-03-31T00:02:03;100049.72;;;10.90;79.96
6208;BME280;3137;51.550;7.060;2023-03-31T00:04:40;100047.44;;;10.85;80.09
6208;BME280;3137;51.550;7.060;2023-03-31T00:07:13;100043.03;;;10.84;80.58
6208;BME280;3137;51.550;7.060;2023-03-31T00:09:40;100041.75;;;10.79;80.61
6208;BME280;3137;51.550;7.060;2023-03-31T00:12:12;100034.69;;;10.78;80.52
6208;BME280;3137;51.550;7.060;2023-03-31T00:14:39;100036.91;;;10.73;80.64
6208;BME280;3137;51.550;7.060;2023-03-31T00:17:07;100029.50;;;10.65;80.96
6208;BME280;3137;51.550;7.060;2023-03-31T00:19:33;100014.88;;;10.69;80.49
6208;BME280;3137;51.550;7.060;2023-03-31T00:21:59;100015.72;;;10.70;80.49
6208;BME280;3137;51.550;7.060;2023-03-31T00:24:31;100008.53;;;10.70;80.42
6208;BME280;3137;51.550;7.060;2023-03-31T00:26:59;100015.00;;;10.68;80.31
6208;BME280;3137;51.550;7.060;2023-03-31T00:29:25;100003.31;;;10.69;81.14
6208;BME280;3137;51.550;7.060;2023-03-31T00:31:52;99988.38;;;10.66;81.08
6208;BME280;3137;51.550;7.060;2023-03-31T00:34:19;99993.34;;;10.71;80.23
6208;BME280;3137;51.550;7.060;2023-03-31T00:36:45;99985.53;;;10.68;80.19
6208;BME280;3137;51.550;7.060;2023-03-31T00:39:17;99984.31;;;10.72;80.18
6208;BME280;3137;51.550;7.060;2023-03-31T00:41:44;99987.84;;;10.72;79.73
6208;BME280;3137;51.550;7.060;2023-03-31T00:44:19;99972.16;;;10.68;80.10
6208;BME280;3137;51.550;7.060;2023-03-31T00:46:56;99970.47;;;10.67;80.37
6208;BME280;3137;51.550;7.060;2023-03-31T00:49:30;99967.91;;;10.65;80.32
6208;BME280;3137;51.550;7.060;2023-03-31T00:52:04;99961.13;;;10.61;80.92
6208;BME280;3137;51.550;7.060;2023-03-31T00:54:33;99954.47;;;10.76;80.17
6208;BME280;3137;51.550;7.060;2023-03-31T00:57:03;99947.41;;;10.75;80.32
6208;BME280;3137;51.550;7.060;2023-03-31T00:59:36;99946.31;;;10.78;80.43
6208;BME280;3137;51.550;7.060;2023-03-31T01:02:03;99941.34;;;10.73;81.03
6208;BME280;3137;51.550;7.060;2023-03-31T01:04:33;99933.69;;;10.69;80.82
6208;BME280;3137;51.550;7.060;2023-03-31T01:07:12;99923.94;;;10.68;80.99
6208;BME280;3137;51.550;7.060;2023-03-31T01:09:44;99930.03;;;10.70;81.40
6208;BME280;3137;51.550;7.060;2023-03-31T01:12:14;99920.56;;;10.66;81.12
6208;BME280;3137;51.550;7.060;2023-03-31T01:14:42;99909.25;;;10.62;81.22
6208;BME280;3137;51.550;7.060;2023-03-31T01:17:09;99917.19;;;10.63;81.42
6208;BME280;3137;51.550;7.060;2023-03-31T01:19:47;99910.94;;;10.63;81.05
6208;BME280;3137;51.550;7.060;2023-03-31T01:22:41;99900.78;;;10.57;81.96
6208;BME280;3137;51.550;7.060;2023-03-31T01:25:47;99905.53;;;10.53;82.49
6208;BME280;3137;51.550;7.060;2023-03-31T01:33:57;99894.44;;;10.37;85.87
6208;BME280;3137;51.550;7.060;2023-03-31T01:36:56;99899.69;;;10.27;86.40
6208;BME280;3137;51.550;7.060;2023-03-31T01:39:43;99888.88;;;10.29;86.60
6208;BME280;3137;51.550;7.060;2023-03-31T01:42:23;99885.81;;;10.33;86.98
6208;BME280;3137;51.550;7.060;2023-03-31T01:45:06;99885.09;;;10.31;87.24
6208;BME280;3137;51.550;7.060;2023-03-31T01:47:43;99880.56;;;10.32;87.66
6208;BME280;3137;51.550;7.060;2023-03-31T01:53:14;99856.88;;;10.27;88.27
6208;BME280;3137;51.550;7.060;2023-03-31T01:55:49;99843.00;;;10.22;88.68
6208;BME280;3137;51.550;7.060;2023-03-31T01:58:21;99842.91;;;10.23;88.47
6208;BME280;3137;51.550;7.060;2023-03-31T02:01:05;99838.66;;;10.21;88.79
6208;BME280;3137;51.550;7.060;2023-03-31T02:03:40;99834.41;;;10.18;88.17
6208;BME280;3137;51.550;7.060;2023-03-31T02:06:18;99828.94;;;10.20;88.62
6208;BME280;3137;51.550;7.060;2023-03-31T02:08:50;99815.94;;;10.15;88.50
6208;BME280;3137;51.550;7.060;2023-03-31T02:11:20;99817.38;;;10.19;88.79
6208;BME280;3137;51.550;7.060;2023-03-31T02:13:48;99807.06;;;10.15;88.50
6208;BME280;3137;51.550;7.060;2023-03-31T02:16:21;99804.47;;;10.04;89.46
6208;BME280;3137;51.550;7.060;2023-03-31T02:18:53;99798.00;;;10.06;89.54
6208;BME280;3137;51.550;7.060;2023-03-31T02:21:31;99791.09;;;10.04;89.35
6208;BME280;3137;51.550;7.060;2023-03-31T02:24:01;99787.53;;;10.03;89.55
6208;BME280;3137;51.550;7.060;2023-03-31T02:26:35;99780.16;;;9.95;89.97
6208;BME280;3137;51.550;7.060;2023-03-31T02:29:02;99772.16;;;9.95;90.01
6208;BME280;3137;51.550;7.060;2023-03-31T02:31:38;99771.03;;;9.98;89.84
6208;BME280;3137;51.550;7.060;2023-03-31T02:34:06;99761.22;;;9.98;90.13
6208;BME280;3137;51.550;7.060;2023-03-31T02:36:33;99749.63;;;9.98;90.11
6208;BME280;3137;51.550;7.060;2023-03-31T02:39:13;99755.97;;;9.97;90.14
6208;BME280;3137;51.550;7.060;2023-03-31T02:41:41;99738.47;;;9.93;90.66
6208;BME280;3137;51.550;7.060;2023-03-31T02:44:09;99741.38;;;10.01;90.57
6208;BME280;3137;51.550;7.060;2023-03-31T02:46:36;99722.38;;;10.04;90.32
6208;BME280;3137;51.550;7.060;2023-03-31T02:49:05;99723.81;;;10.08;90.23
6208;BME280;3137;51.550;7.060;2023-03-31T02:54:39;99709.00;;;10.04;90.19
6208;BME280;3137;51.550;7.060;2023-03-31T02:57:47;99699.69;;;9.98;90.91
6208;BME280;3137;51.550;7.060;2023-03-31T03:05:52;99679.56;;;10.04;90.88
6208;BME280;3137;51.550;7.060;2023-03-31T03:09:00;99664.09;;;10.08;89.98
6208;BME280;3137;51.550;7.060;2023-03-31T03:11:53;99652.28;;;10.10;90.93
6208;BME280;3137;51.550;7.060;2023-03-31T03:17:09;99653.16;;;10.11;90.54
6208;BME280;3137;51.550;7.060;2023-03-31T03:19:37;99646.91;;;10.10;90.42
6208;BME280;3137;51.550;7.060;2023-03-31T03:22:03;99645.97;;;10.11;90.68
6208;BME280;3137;51.550;7.060;2023-03-31T03:24:31;99630.88;;;10.10;90.68
6208;BME280;3137;51.550;7.060;2023-03-31T03:26:59;99622.59;;;10.13;90.52
6208;BME280;3137;51.550;7.060;2023-03-31T03:29:26;99608.50;;;10.11;90.89
6208;BME280;3137;51.550;7.060;2023-03-31T03:31:53;99606.78;;;10.10;90.60
6208;BME280;3137;51.550;7.060;2023-03-31T03:34:19;99602.44;;;10.09;90.86
6208;BME280;3137;51.550;7.060;2023-03-31T03:36:46;99607.66;;;10.11;90.81
6208;BME280;3137;51.550;7.060;2023-03-31T03:39:12;99601.91;;;10.15;90.55
6208;BME280;3137;51.550;7.060;2023-03-31T03:41:38;99606.50;;;10.04;91.02
6208;BME280;3137;51.550;7.060;2023-03-31T03:44:05;99584.13;;;10.05;90.50
6208;BME280;3137;51.550;7.060;2023-03-31T03:46:31;99567.22;;;10.04;91.00
6208;BME280;3137;51.550;7.060;2023-03-31T03:48:58;99575.94;;;9.96;91.13
6208;BME280;3137;51.550;7.060;2023-03-31T03:51:24;99567.19;;;9.94;91.61
6208;BME280;3137;51.550;7.060;2023-03-31T03:53:50;99564.22;;;9.97;91.33
6208;BME280;3137;51.550;7.060;2023-03-31T03:56:17;99553.81;;;9.94;91.37
6208;BME280;3137;51.550;7.060;2023-03-31T03:58:43;99546.63;;;9.95;91.31
6208;BME280;3137;51.550;7.060;2023-03-31T04:01:09;99544.09;;;9.93;91.38
6208;BME280;3137;51.550;7.060;2023-03-31T04:03:36;99541.41;;;9.93;91.62
6208;BME280;3137;51.550;7.060;2023-03-31T04:06:02;99542.97;;;9.96;91.50
6208;BME280;3137;51.550;7.060;2023-03-31T04:08:29;99529.19;;;10.00;91.35
6208;BME280;3137;51.550;7.060;2023-03-31T04:10:56;99526.66;;;9.99;91.36
6208;BME280;3137;51.550;7.060;2023-03-31T04:13:22;99522.56;;;9.95;91.27
6208;BME280;3137;51.550;7.060;2023-03-31T04:15:48;99519.59;;;9.98;91.68
6208;BME280;3137;51.550;7.060;2023-03-31T04:18:15;99514.13;;;9.99;91.20
6208;BME280;3137;51.550;7.060;2023-03-31T04:20:52;99494.81;;;9.96;91.42
6208;BME280;3137;51.550;7.060;2023-03-31T04:23:32;99475.53;;;9.92;91.50
6208;BME280;3137;51.550;7.060;2023-03-31T04:25:58;99484.56;;;9.91;91.61
6208;BME280;3137;51.550;7.060;2023-03-31T04:28:25;99480.31;;;9.89;91.45
6208;BME280;3137;51.550;7.060;2023-03-31T04:30:52;99476.53;;;9.91;91.56
6208;BME280;3137;51.550;7.060;2023-03-31T04:33:24;99503.00;;;9.94;91.58
6208;BME280;3137;51.550;7.060;2023-03-31T04:35:50;99483.03;;;9.98;91.24
6208;BME280;3137;51.550;7.060;2023-03-31T04:38:19;99491.59;;;9.92;90.94
6208;BME280;3137;51.550;7.060;2023-03-31T04:40:48;99462.16;;;9.92;91.14
6208;BME280;3137;51.550;7.060;2023-03-31T04:43:16;99455.41;;;9.98;90.86
6208;BME280;3137;51.550;7.060;2023-03-31T04:45:43;99459.09;;;9.97;90.47
6208;BME280;3137;51.550;7.060;2023-03-31T04:48:10;99443.56;;;9.91;90.34
6208;BME280;3137;51.550;7.060;2023-03-31T04:50:37;99434.31;;;9.95;90.59
6208;BME280;3137;51.550;7.060;2023-03-31T04:53:04;99410.94;;;9.87;91.02
6208;BME280;3137;51.550;7.060;2023-03-31T04:55:31;99428.25;;;9.93;90.59
6208;BME280;3137;51.550;7.060;2023-03-31T04:57:58;99426.41;;;9.93;90.78
6208;BME280;3137;51.550;7.060;2023-03-31T05:00:25;99428.41;;;9.91;90.31
6208;BME280;3137;51.550;7.060;2023-03-31T05:02:51;99413.63;;;9.97;90.27
6208;BME280;3137;51.550;7.060;2023-03-31T05:05:18;99413.75;;;10.05;89.77
6208;BME280;3137;51.550;7.060;2023-03-31T05:07:44;99404.06;;;9.94;89.68
6208;BME280;3137;51.550;7.060;2023-03-31T05:10:11;99385.16;;;9.96;88.99
6208;BME280;3137;51.550;7.060;2023-03-31T05:12:38;99383.78;;;10.01;88.85
6208;BME280;3137;51.550;7.060;2023-03-31T05:15:06;99378.84;;;9.97;88.53
6208;BME280;3137;51.550;7.060;2023-03-31T05:17:34;99356.75;;;9.95;88.49
6208;BME280;3137;51.550;7.060;2023-03-31T05:20:01;99350.56;;;9.85;89.17
6208;BME280;3137;51.550;7.060;2023-03-31T05:22:34;99339.88;;;9.85;89.18
6208;BME280;3137;51.550;7.060;2023-03-31T05:25:01;99333.09;;;9.80;89.55
6208;BME280;3137;51.550;7.060;2023-03-31T05:27:28;99330.72;;;9.77;89.42
6208;BME280;3137;51.550;7.060;2023-03-31T05:29:54;99337.88;;;9.77;89.29
6208;BME280;3137;51.550;7.060;2023-03-31T05:32:21;99328.16;;;9.76;89.64
6208;BME280;3137;51.550;7.060;2023-03-31T05:34:47;99330.56;;;9.79;89.21
6208;BME280;3137;51.550;7.060;2023-03-31T05:37:19;99314.94;;;9.74;88.93
6208;BME280;3137;51.550;7.060;2023-03-31T05:39:45;99320.44;;;9.73;88.96
6208;BME280;3137;51.550;7.060;2023-03-31T05:42:11;99322.53;;;9.79;89.00
6208;BME280;3137;51.550;7.060;2023-03-31T05:44:38;99310.28;;;9.76;88.67
6208;BME280;3137;51.550;7.060;2023-03-31T05:47:04;99307.78;;;9.75;88.96
6208;BME280;3137;51.550;7.060;2023-03-31T05:49:31;99308.19;;;9.80;88.59
6208;BME280;3137;51.550;7.060;2023-03-31T05:51:57;99293.00;;;9.80;88.56
6208;BME280;3137;51.550;7.060;2023-03-31T05:54:24;99286.63;;;9.82;88.25
6208;BME280;3137;51.550;7.060;2023-03-31T05:56:51;99280.31;;;9.83;88.30
6208;BME280;3137;51.550;7.060;2023-03-31T05:59:18;99278.50;;;9.83;88.35
6208;BME280;3137;51.550;7.060;2023-03-31T06:01:45;99279.91;;;9.87;87.85
6208;BME280;3137;51.550;7.060;2023-03-31T06:04:12;99273.28;;;9.91;87.50
6208;BME280;3137;51.550;7.060;2023-03-31T06:06:38;99277.50;;;9.94;87.39
6208;BME280;3137;51.550;7.060;2023-03-31T06:09:05;99273.72;;;9.96;87.41
6208;BME280;3137;51.550;7.060;2023-03-31T06:11:31;99267.22;;;9.99;86.75
6208;BME280;3137;51.550;7.060;2023-03-31T06:13:58;99272.16;;;10.04;87.19
6208;BME280;3137;51.550;7.060;2023-03-31T06:16:24;99265.38;;;9.99;86.49
6208;BME280;3137;51.550;7.060;2023-03-31T06:18:51;99255.94;;;10.05;86.52
6208;BME280;3137;51.550;7.060;2023-03-31T06:21:18;99256.09;;;10.04;86.84
6208;BME280;3137;51.550;7.060;2023-03-31T06:23:46;99245.81;;;10.09;86.53
6208;BME280;3137;51.550;7.060;2023-03-31T06:26:16;99252.00;;;10.09;86.67
6208;BME280;3137;51.550;7.060;2023-03-31T06:28:43;99254.13;;;10.06;86.25
6208;BME280;3137;51.550;7.060;2023-03-31T06:31:12;99251.00;;;10.10;86.17
6208;BME280;3137;51.550;7.060;2023-03-31T06:33:40;99248.50;;;10.09;85.42
6208;BME280;3137;51.550;7.060;2023-03-31T06:36:08;99243.97;;;10.09;85.69
6208;BME280;3137;51.550;7.060;2023-03-31T06:38:36;99245.50;;;10.12;85.63
6208;BME280;3137;51.550;7.060;2023-03-31T06:41:04;99250.88;;;10.12;85.38
6208;BME280;3137;51.550;7.060;2023-03-31T06:43:31;99246.94;;;10.06;85.97
6208;BME280;3137;51.550;7.060;2023-03-31T06:45:58;99243.13;;;10.09;86.00
6208;BME280;3137;51.550;7.060;2023-03-31T06:48:25;99241.03;;;10.02;86.38
6208;BME280;3137;51.550;7.060;2023-03-31T06:50:53;99240.47;;;9.99;86.81
6208;BME280;3137;51.550;7.060;2023-03-31T06:53:20;99245.13;;;9.97;87.28
6208;BME280;3137;51.550;7.060;2023-03-31T06:55:49;99237.50;;;10.02;87.34
6208;BME280;3137;51.550;7.060;2023-03-31T06:58:16;99239.38;;;9.92;88.02
6208;BME280;3137;51.550;7.060;2023-03-31T07:00:42;99245.16;;;9.87;88.47
6208;BME280;3137;51.550;7.060;2023-03-31T07:03:11;99241.19;;;9.82;88.76
6208;BME280;3137;51.550;7.060;2023-03-31T07:05:38;99236.97;;;9.79;89.43
6208;BME280;3137;51.550;7.060;2023-03-31T07:08:05;99241.19;;;9.72;90.00
6208;BME280;3137;51.550;7.060;2023-03-31T07:10:31;99239.81;;;9.68;89.84
6208;BME280;3137;51.550;7.060;2023-03-31T07:12:58;99236.44;;;9.66;90.08
6208;BME280;3137;51.550;7.060;2023-03-31T07:15:25;99235.19;;;9.70;90.34
6208;BME280;3137;51.550;7.060;2023-03-31T07:17:55;99238.53;;;9.72;89.90
6208;BME280;3137;51.550;7.060;2023-03-31T07:20:28;99229.13;;;9.68;90.52
6208;BME280;3137;51.550;7.060;2023-03-31T07:22:55;99230.94;;;9.67;90.65
6208;BME280;3137;51.550;7.060;2023-03-31T07:25:22;99229.97;;;9.68;90.51
6208;BME280;3137;51.550;7.060;2023-03-31T07:27:48;99226.03;;;9.63;90.75
6208;BME280;3137;51.550;7.060;2023-03-31T07:30:17;99221.09;;;9.58;90.87
6208;BME280;3137;51.550;7.060;2023-03-31T07:32:48;99217.03;;;9.54;90.93
6208;BME280;3137;51.550;7.060;2023-03-31T07:35:16;99223.78;;;9.58;90.92
6208;BME280;3137;51.550;7.060;2023-03-31T07:37:45;99219.41;;;9.57;91.23
6208;BME280;3137;51.550;7.060;2023-03-31T07:40:14;99215.75;;;9.58;91.38
6208;BME280;3137;51.550;7.060;2023-03-31T07:42:41;99214.34;;;9.64;91.41
6208;BME280;3137;51.550;7.060;2023-03-31T07:45:08;99217.84;;;9.64;91.67
6208;BME280;3137;51.550;7.060;2023-03-31T07:47:35;99220.25;;;9.57;91.56
6208;BME280;3137;51.550;7.060;2023-03-31T07:50:02;99220.81;;;9.61;91.27
6208;BME280;3137;51.550;7.060;2023-03-31T07:52:28;99222.06;;;9.57;91.74
6208;BME280;3137;51.550;7.060;2023-03-31T07:54:55;99225.47;;;9.59;91.76
6208;BME280;3137;51.550;7.060;2023-03-31T07:57:21;99221.81;;;9.60;91.67
6208;BME280;3137;51.550;7.060;2023-03-31T07:59:48;99218.69;;;9.55;92.07
6208;BME280;3137;51.550;7.060;2023-03-31T08:02:16;99221.38;;;9.55;92.23
6208;BME280;3137;51.550;7.060;2023-03-31T08:04:43;99217.31;;;9.61;92.70
6208;BME280;3137;51.550;7.060;2023-03-31T08:07:12;99215.91;;;9.56;92.50
6208;BME280;3137;51.550;7.060;2023-03-31T08:09:38;99219.81;;;9.52;92.59
6208;BME280;3137;51.550;7.060;2023-03-31T08:12:05;99221.38;;;9.55;92.62
6208;BME280;3137;51.550;7.060;2023-03-31T08:14:32;99207.44;;;9.61;92.34
6208;BME280;3137;51.550;7.060;2023-03-31T08:17:06;99203.38;;;9.57;92.62
6208;BME280;3137;51.550;7.060;2023-03-31T08:19:33;99188.75;;;9.51;92.71
6208;BME280;3137;51.550;7.060;2023-03-31T08:21:59;99187.06;;;9.50;93.50
6208;BME280;3137;51.550;7.060;2023-03-31T08:24:26;99175.41;;;9.51;93.60
6208;BME280;3137;51.550;7.060;2023-03-31T08:26:52;99183.13;;;9.54;93.12
6208;BME280;3137;51.550;7.060;2023-03-31T08:29:18;99166.94;;;9.56;92.83
6208;BME280;3137;51.550;7.060;2023-03-31T08:31:45;99172.28;;;9.56;92.68
6208;BME280;3137;51.550;7.060;2023-03-31T08:34:11;99167.22;;;9.63;92.61
6208;BME280;3137;51.550;7.060;2023-03-31T08:36:37;99164.97;;;9.68;92.55
6208;BME280;3137;51.550;7.060;2023-03-31T08:39:04;99166.50;;;9.70;92.38
6208;BME280;3137;51.550;7.060;2023-03-31T08:41:53;99163.84;;;9.70;92.65
6208;BME280;3137;51.550;7.060;2023-03-31T08:44:25;99168.03;;;9.83;92.00
6208;BME280;3137;51.550;7.060;2023-03-31T08:46:56;99159.72;;;9.76;91.56
6208;BME280;3137;51.550;7.060;2023-03-31T08:49:24;99155.38;;;9.85;91.61
6208;BME280;3137;51.550;7.060;2023-03-31T08:51:56;99150.28;;;9.91;91.17
6208;BME280;3137;51.550;7.060;2023-03-31T08:54:32;99160.69;;;9.94;90.88
6208;BME280;3137;51.550;7.060;2023-03-31T08:56:59;99160.94;;;10.01;90.48
6208;BME280;3137;51.550;7.060;2023-03-31T08:59:30;99153.03;;;10.09;91.08
6208;BME280;3137;51.550;7.060;2023-03-31T09:04:51;99156.09;;;10.14;90.16
6208;BME280;3137;51.550;7.060;2023-03-31T09:07:49;99147.50;;;10.20;89.81
6208;BME280;3137;51.550;7.060;2023-03-31T09:15:39;99142.56;;;10.26;90.44
6208;BME280;3137;51.550;7.060;2023-03-31T09:18:35;99140.31;;;10.21;90.06
6208;BME280;3137;51.550;7.060;2023-03-31T09:21:16;99136.94;;;10.29;89.80
6208;BME280;3137;51.550;7.060;2023-03-31T09:23:54;99141.00;;;10.33;89.79
6208;BME280;3137;51.550;7.060;2023-03-31T09:26:31;99129.47;;;10.32;89.89
6208;BME280;3137;51.550;7.060;2023-03-31T09:29:00;99126.09;;;10.30;90.46
6208;BME280;3137;51.550;7.060;2023-03-31T09:31:29;99133.94;;;10.32;90.38
6208;BME280;3137;51.550;7.060;2023-03-31T09:34:00;99128.72;;;10.40;90.51
6208;BME280;3137;51.550;7.060;2023-03-31T09:36:26;99124.34;;;10.39;90.10
6208;BME280;3137;51.550;7.060;2023-03-31T09:38:53;99120.69;;;10.40;90.34
6208;BME280;3137;51.550;7.060;2023-03-31T09:41:20;99106.03;;;10.44;90.37
6208;BME280;3137;51.550;7.060;2023-03-31T09:43:47;99099.66;;;10.45;90.99
6208;BME280;3137;51.550;7.060;2023-03-31T09:46:30;99102.91;;;10.49;90.98
6208;BME280;3137;51.550;7.060;2023-03-31T09:49:03;99089.03;;;10.53;91.19
6208;BME280;3137;51.550;7.060;2023-03-31T09:51:33;99085.53;;;10.53;90.82
6208;BME280;3137;51.550;7.060;2023-03-31T09:54:22;99092.28;;;10.57;91.04
6208;BME280;3137;51.550;7.060;2023-03-31T09:56:51;99075.50;;;10.55;90.87
6208;BME280;3137;51.550;7.060;2023-03-31T09:59:22;99068.19;;;10.57;91.50
6208;BME280;3137;51.550;7.060;2023-03-31T10:01:58;99074.75;;;10.62;90.96
6208;BME280;3137;51.550;7.060;2023-03-31T10:04:29;99070.66;;;10.68;91.28
6208;BME280;3137;51.550;7.060;2023-03-31T10:06:56;99069.63;;;10.69;92.04
6208;BME280;3137;51.550;7.060;2023-03-31T10:09:26;99059.47;;;10.73;91.55
6208;BME280;3137;51.550;7.060;2023-03-31T10:11:58;99062.91;;;10.83;91.48
6208;BME280;3137;51.550;7.060;2023-03-31T10:14:45;99053.09;;;10.92;91.27
6208;BME280;3137;51.550;7.060;2023-03-31T10:17:17;99050.19;;;11.03;91.33
6208;BME280;3137;51.550;7.060;2023-03-31T10:19:57;99045.75;;;11.12;91.03
6208;BME280;3137;51.550;7.060;2023-03-31T10:22:30;99034.09;;;11.21;91.58
6208;BME280;3137;51.550;7.060;2023-03-31T10:25:20;99031.03;;;11.42;91.12
6208;BME280;3137;51.550;7.060;2023-03-31T10:27:52;99037.84;;;11.54;90.75
6208;BME280;3137;51.550;7.060;2023-03-31T10:30:23;99045.38;;;11.59;89.59
6208;BME280;3137;51.550;7.060;2023-03-31T10:32:51;99047.56;;;11.55;88.84
6208;BME280;3137;51.550;7.060;2023-03-31T10:35:28;99063.09;;;11.52;89.36
6208;BME280;3137;51.550;7.060;2023-03-31T10:38:02;99073.09;;;11.41;88.96
6208;BME280;3137;51.550;7.060;2023-03-31T10:40:32;99059.19;;;11.38;89.19
6208;BME280;3137;51.550;7.060;2023-03-31T10:43:04;99067.22;;;11.38;89.78
6208;BME280;3137;51.550;7.060;2023-03-31T10:45:43;99051.28;;;11.36;87.21
6208;BME280;3137;51.550;7.060;2023-03-31T10:48:36;99042.88;;;11.31;86.64
6208;BME280;3137;51.550;7.060;2023-03-31T10:51:25;99034.59;;;11.42;87.04
6208;BME280;3137;51.550;7.060;2023-03-31T10:53:53;99034.25;;;11.45;85.94
6208;BME280;3137;51.550;7.060;2023-03-31T10:56:35;99033.06;;;11.40;85.19
6208;BME280;3137;51.550;7.060;2023-03-31T11:05:09;99026.72;;;11.75;83.17
6208;BME280;3137;51.550;7.060;2023-03-31T11:13:19;99024.91;;;12.10;84.25
6208;BME280;3137;51.550;7.060;2023-03-31T11:15:59;99028.56;;;12.09;84.34
6208;BME280;3137;51.550;7.060;2023-03-31T11:24:17;99058.03;;;11.66;80.70
6208;BME280;3137;51.550;7.060;2023-03-31T11:41:01;99032.94;;;11.76;81.93
6208;BME280;3137;51.550;7.060;2023-03-31T11:43:39;99031.03;;;11.94;84.41
6208;BME280;3137;51.550;7.060;2023-03-31T11:46:20;99031.09;;;12.10;84.29
6208;BME280;3137;51.550;7.060;2023-03-31T11:48:58;99037.50;;;12.18;81.76
6208;BME280;3137;51.550;7.060;2023-03-31T11:51:43;99035.34;;;12.29;81.18
6208;BME280;3137;51.550;7.060;2023-03-31T11:54:19;99044.44;;;12.37;77.39
6208;BME280;3137;51.550;7.060;2023-03-31T11:56:50;99038.59;;;12.49;76.41
6208;BME280;3137;51.550;7.060;2023-03-31T11:59:18;99028.38;;;12.53;77.69
6208;BME280;3137;51.550;7.060;2023-03-31T12:02:09;99031.53;;;12.48;74.78
6208;BME280;3137;51.550;7.060;2023-03-31T12:04:52;99039.44;;;12.50;73.33
6208;BME280;3137;51.550;7.060;2023-03-31T12:07:35;99026.66;;;12.44;73.02
6208;BME280;3137;51.550;7.060;2023-03-31T12:12:39;99014.75;;;12.46;74.44
6208;BME280;3137;51.550;7.060;2023-03-31T12:15:16;99031.69;;;12.47;76.34
6208;BME280;3137;51.550;7.060;2023-03-31T12:17:47;99021.50;;;12.59;75.80
6208;BME280;3137;51.550;7.060;2023-03-31T12:20:28;99009.06;;;12.66;76.14
6208;BME280;3137;51.550;7.060;2023-03-31T12:22:58;99016.81;;;12.77;75.20
6208;BME280;3137;51.550;7.060;2023-03-31T12:25:34;98996.16;;;12.77;73.93
6208;BME280;3137;51.550;7.060;2023-03-31T12:28:05;98995.81;;;12.56;72.93
6208;BME280;3137;51.550;7.060;2023-03-31T12:30:34;99002.69;;;12.59;72.29
6208;BME280;3137;51.550;7.060;2023-03-31T12:33:20;99001.53;;;12.53;73.28
6208;BME280;3137;51.550;7.060;2023-03-31T12:49:40;99006.84;;;12.45;74.39
6208;BME280;3137;51.550;7.060;2023-03-31T12:52:37;99006.06;;;12.52;73.38
6208;BME280;3137;51.550;7.060;2023-03-31T13:04:06;98976.69;;;12.67;74.58
6208;BME280;3137;51.550;7.060;2023-03-31T13:11:41;98959.22;;;12.96;73.21
6208;BME280;3137;51.550;7.060;2023-03-31T13:14:21;98978.00;;;13.04;73.83
6208;BME280;3137;51.550;7.060;2023-03-31T13:16:49;98952.31;;;13.10;71.97
6208;BME280;3137;51.550;7.060;2023-03-31T13:19:30;98939.53;;;13.12;70.49
6208;BME280;3137;51.550;7.060;2023-03-31T13:21:58;98942.06;;;13.13;72.71
6208;BME280;3137;51.550;7.060;2023-03-31T13:24:28;98942.69;;;13.24;71.56
6208;BME280;3137;51.550;7.060;2023-03-31T13:26:56;98948.94;;;13.24;71.32
6208;BME280;3137;51.550;7.060;2023-03-31T13:29:37;98941.19;;;13.21;70.32
6208;BME280;3137;51.550;7.060;2023-03-31T13:32:07;98934.81;;;13.14;71.16
6208;BME280;3137;51.550;7.060;2023-03-31T13:35:06;98936.34;;;13.16;71.51
6208;BME280;3137;51.550;7.060;2023-03-31T13:45:58;98936.16;;;13.18;71.15
6208;BME280;3137;51.550;7.060;2023-03-31T13:48:37;98943.41;;;13.17;70.14
6208;BME280;3137;51.550;7.060;2023-03-31T13:59:10;98925.47;;;13.57;65.87
6208;BME280;3137;51.550;7.060;2023-03-31T14:01:53;98929.50;;;13.61;65.15
6208;BME280;3137;51.550;7.060;2023-03-31T14:04:40;98928.56;;;13.46;64.97
6208;BME280;3137;51.550;7.060;2023-03-31T14:07:46;98923.66;;;13.50;65.44
6208;BME280;3137;51.550;7.060;2023-03-31T14:10:31;98930.03;;;13.57;64.55
6208;BME280;3137;51.550;7.060;2023-03-31T14:15:39;98925.47;;;13.66;64.08
6208;BME280;3137;51.550;7.060;2023-03-31T14:18:06;98914.50;;;13.75;63.74
6208;BME280;3137;51.550;7.060;2023-03-31T14:20:47;98904.34;;;13.86;63.37
6208;BME280;3137;51.550;7.060;2023-03-31T14:23:29;98901.50;;;13.79;62.46
6208;BME280;3137;51.550;7.060;2023-03-31T14:28:59;98894.47;;;13.78;62.55
6208;BME280;3137;51.550;7.060;2023-03-31T14:31:51;98892.81;;;13.69;63.25
6208;BME280;3137;51.550;7.060;2023-03-31T14:34:40;98871.81;;;13.64;63.60
6208;BME280;3137;51.550;7.060;2023-03-31T14:37:12;98887.63;;;13.67;62.70
6208;BME280;3137;51.550;7.060;2023-03-31T14:39:43;98877.88;;;13.66;62.66
6208;BME280;3137;51.550;7.060;2023-03-31T14:42:13;98879.06;;;13.64;62.74
6208;BME280;3137;51.550;7.060;2023-03-31T14:44:41;98879.94;;;13.56;63.05
6208;BME280;3137;51.550;7.060;2023-03-31T14:47:25;98869.19;;;13.56;61.33
6208;BME280;3137;51.550;7.060;2023-03-31T14:50:04;98869.19;;;13.56;62.67
6208;BME280;3137;51.550;7.060;2023-03-31T14:52:33;98874.44;;;13.49;63.34
6208;BME280;3137;51.550;7.060;2023-03-31T14:55:00;98880.69;;;13.42;63.58
6208;BME280;3137;51.550;7.060;2023-03-31T14:57:33;98884.72;;;13.37;65.13
6208;BME280;3137;51.550;7.060;2023-03-31T15:00:05;98900.09;;;12.96;67.72
6208;BME280;3137;51.550;7.060;2023-03-31T15:02:35;98925.47;;;12.44;72.72
6208;BME280;3137;51.550;7.060;2023-03-31T15:05:05;98939.91;;;11.84;76.95
6208;BME280;3137;51.550;7.060;2023-03-31T15:07:33;98926.56;;;11.58;80.79
6208;BME280;3137;51.550;7.060;2023-03-31T15:10:01;98916.47;;;11.44;80.86
6208;BME280;3137;51.550;7.060;2023-03-31T15:12:28;98921.81;;;11.44;81.87
6208;BME280;3137;51.550;7.060;2023-03-31T15:15:05;98918.47;;;11.42;81.47
6208;BME280;3137;51.550;7.060;2023-03-31T15:17:38;98921.47;;;11.39;82.94
6208;BME280;3137;51.550;7.060;2023-03-31T15:20:36;98915.59;;;11.35;82.49
6208;BME280;3137;51.550;7.060;2023-03-31T15:23:16;98905.88;;;11.34;82.47
6208;BME280;3137;51.550;7.060;2023-03-31T15:25:46;98913.75;;;11.36;82.80
6208;BME280;3137;51.550;7.060;2023-03-31T15:28:15;98929.19;;;11.42;82.58
6208;BME280;3137;51.550;7.060;2023-03-31T15:30:43;98928.69;;;11.46;82.48
6208;BME280;3137;51.550;7.060;2023-03-31T15:33:20;98928.69;;;11.46;81.77
6208;BME280;3137;51.550;7.060;2023-03-31T15:35:47;98906.09;;;11.49;81.87
6208;BME280;3137;51.550;7.060;2023-03-31T15:38:15;98891.53;;;11.52;81.88
6208;BME280;3137;51.550;7.060;2023-03-31T15:40:53;98884.50;;;11.50;80.52
6208;BME280;3137;51.550;7.060;2023-03-31T15:43:31;98898.94;;;11.66;78.82